< < Back
Terminal Aerodrome Forecast


Current Version              Previous Versions:   1  2  3  4  5  6  7  8  9  

Terminal Aerodrome Forecast

649
FTUS44 KBMX 251720
TAFMGM
TAF
KMGM 251720Z 2518/2618 08005KT P6SM SCT050
     FM260000 08003KT P6SM FEW250=



Latest METAR

181
SAUS80 KWBC 261700
MTRMGM
METAR KMGM 261653Z VRB03KT 10SM FEW070 33/18 A3009 RMK AO2 SLP186
T03330183


USA.gov is the U.S. government's official web portal to all federal, state and local government web resources and services.